sensor_id;sensor_type;location;lat;lon;timestamp;temperature;humidity
2477;DHT22;1249;51.270;6.756;2022-12-11T00:02:18;6.20;99.90
2477;DHT22;1249;51.270;6.756;2022-12-11T00:04:46;6.20;99.90
2477;DHT22;1249;51.270;6.756;2022-12-11T00:07:13;6.20;99.90
2477;DHT22;1249;51.270;6.756;2022-12-11T00:09:39;6.20;99.90
2477;DHT22;1249;51.270;6.756;2022-12-11T00:12:06;6.30;99.90
2477;DHT22;1249;51.270;6.756;2022-12-11T00:14:33;6.20;99.90
2477;DHT22;1249;51.270;6.756;2022-12-11T00:17:00;6.20;99.90
2477;DHT22;1249;51.270;6.756;2022-12-11T00:19:27;6.20;99.90
2477;DHT22;1249;51.270;6.756;2022-12-11T00:21:55;6.20;99.90
2477;DHT22;1249;51.270;6.756;2022-12-11T00:24:22;6.20;99.90
2477;DHT22;1249;51.270;6.756;2022-12-11T00:26:49;6.20;99.90
2477;DHT22;1249;51.270;6.756;2022-12-11T00:29:15;6.30;99.90
2477;DHT22;1249;51.270;6.756;2022-12-11T00:31:42;6.20;99.90
2477;DHT22;1249;51.270;6.756;2022-12-11T00:34:09;6.20;99.90
2477;DHT22;1249;51.270;6.756;2022-12-11T00:36:37;6.20;99.90
2477;DHT22;1249;51.270;6.756;2022-12-11T00:39:05;6.20;99.90
2477;DHT22;1249;51.270;6.756;2022-12-11T00:41:32;6.30;99.90
2477;DHT22;1249;51.270;6.756;2022-12-11T00:43:59;6.20;99.90
2477;DHT22;1249;51.270;6.756;2022-12-11T00:46:26;6.30;99.90
2477;DHT22;1249;51.270;6.756;2022-12-11T00:48:52;6.30;99.90
2477;DHT22;1249;51.270;6.756;2022-12-11T00:51:19;6.30;99.90
2477;DHT22;1249;51.270;6.756;2022-12-11T00:53:46;6.30;99.90
2477;DHT22;1249;51.270;6.756;2022-12-11T00:56:16;6.20;99.90
2477;DHT22;1249;51.270;6.756;2022-12-11T00:58:43;6.20;99.90
2477;DHT22;1249;51.270;6.756;2022-12-11T01:01:13;6.30;99.90
2477;DHT22;1249;51.270;6.756;2022-12-11T01:03:40;6.20;99.90
2477;DHT22;1249;51.270;6.756;2022-12-11T01:06:07;6.30;99.90
2477;DHT22;1249;51.270;6.756;2022-12-11T01:08:36;6.30;99.90
2477;DHT22;1249;51.270;6.756;2022-12-11T01:11:05;6.30;99.90
2477;DHT22;1249;51.270;6.756;2022-12-11T01:13:32;6.30;99.90
2477;DHT22;1249;51.270;6.756;2022-12-11T01:16:04;6.30;99.90
2477;DHT22;1249;51.270;6.756;2022-12-11T01:18:31;6.30;99.90
2477;DHT22;1249;51.270;6.756;2022-12-11T01:20:58;6.20;99.90
2477;DHT22;1249;51.270;6.756;2022-12-11T01:23:24;6.20;99.90
2477;DHT22;1249;51.270;6.756;2022-12-11T01:25:51;6.20;99.90
2477;DHT22;1249;51.270;6.756;2022-12-11T01:28:18;6.20;99.90
2477;DHT22;1249;51.270;6.756;2022-12-11T01:30:46;6.20;99.90
2477;DHT22;1249;51.270;6.756;2022-12-11T01:33:13;6.30;99.90
2477;DHT22;1249;51.270;6.756;2022-12-11T01:35:39;6.30;99.90
2477;DHT22;1249;51.270;6.756;2022-12-11T01:38:06;6.20;99.90
2477;DHT22;1249;51.270;6.756;2022-12-11T01:40:33;6.30;99.90
2477;DHT22;1249;51.270;6.756;2022-12-11T01:43:00;6.30;99.90
2477;DHT22;1249;51.270;6.756;2022-12-11T01:45:39;6.30;99.90
2477;DHT22;1249;51.270;6.756;2022-12-11T01:48:10;6.30;99.90
2477;DHT22;1249;51.270;6.756;2022-12-11T01:50:41;6.30;99.90
2477;DHT22;1249;51.270;6.756;2022-12-11T01:53:12;6.30;99.90
2477;DHT22;1249;51.270;6.756;2022-12-11T01:55:42;6.20;99.90
2477;DHT22;1249;51.270;6.756;2022-12-11T01:58:11;6.20;99.90
2477;DHT22;1249;51.270;6.756;2022-12-11T02:00:38;6.40;99.90
2477;DHT22;1249;51.270;6.756;2022-12-11T02:03:05;6.30;99.90
2477;DHT22;1249;51.270;6.756;2022-12-11T02:05:33;6.20;99.90
2477;DHT22;1249;51.270;6.756;2022-12-11T02:08:02;6.20;99.90
2477;DHT22;1249;51.270;6.756;2022-12-11T02:10:42;6.20;99.90
2477;DHT22;1249;51.270;6.756;2022-12-11T02:13:18;6.20;99.90
2477;DHT22;1249;51.270;6.756;2022-12-11T02:15:50;6.20;99.90
2477;DHT22;1249;51.270;6.756;2022-12-11T02:18:25;6.20;99.90
2477;DHT22;1249;51.270;6.756;2022-12-11T02:21:02;6.20;99.90
2477;DHT22;1249;51.270;6.756;2022-12-11T02:23:46;6.20;99.90
2477;DHT22;1249;51.270;6.756;2022-12-11T02:26:28;6.20;99.90
2477;DHT22;1249;51.270;6.756;2022-12-11T02:29:01;6.20;99.90
2477;DHT22;1249;51.270;6.756;2022-12-11T02:31:33;6.20;99.90
2477;DHT22;1249;51.270;6.756;2022-12-11T02:34:03;6.20;99.90
2477;DHT22;1249;51.270;6.756;2022-12-11T02:36:34;6.20;99.90
2477;DHT22;1249;51.270;6.756;2022-12-11T02:39:03;6.20;99.90
2477;DHT22;1249;51.270;6.756;2022-12-11T02:41:32;6.20;99.90
2477;DHT22;1249;51.270;6.756;2022-12-11T02:44:01;6.20;99.90
2477;DHT22;1249;51.270;6.756;2022-12-11T02:46:29;6.30;99.90
2477;DHT22;1249;51.270;6.756;2022-12-11T02:48:57;6.30;99.90
2477;DHT22;1249;51.270;6.756;2022-12-11T02:51:27;6.20;99.90
2477;DHT22;1249;51.270;6.756;2022-12-11T02:53:57;6.30;99.90
2477;DHT22;1249;51.270;6.756;2022-12-11T02:56:29;6.20;99.90
2477;DHT22;1249;51.270;6.756;2022-12-11T02:59:03;6.20;99.90
2477;DHT22;1249;51.270;6.756;2022-12-11T03:01:32;6.20;99.90
2477;DHT22;1249;51.270;6.756;2022-12-11T03:03:59;6.20;99.90
2477;DHT22;1249;51.270;6.756;2022-12-11T03:06:30;6.20;99.90
2477;DHT22;1249;51.270;6.756;2022-12-11T03:08:58;6.20;99.90
2477;DHT22;1249;51.270;6.756;2022-12-11T03:11:25;6.20;99.90
2477;DHT22;1249;51.270;6.756;2022-12-11T03:13:52;6.20;99.90
2477;DHT22;1249;51.270;6.756;2022-12-11T03:16:28;6.30;99.90
2477;DHT22;1249;51.270;6.756;2022-12-11T03:19:01;6.30;99.90
2477;DHT22;1249;51.270;6.756;2022-12-11T03:21:33;6.20;99.90
2477;DHT22;1249;51.270;6.756;2022-12-11T03:24:07;6.20;99.90
2477;DHT22;1249;51.270;6.756;2022-12-11T03:26:39;6.20;99.90
2477;DHT22;1249;51.270;6.756;2022-12-11T03:29:14;6.20;99.90
2477;DHT22;1249;51.270;6.756;2022-12-11T03:31:46;6.20;99.90
2477;DHT22;1249;51.270;6.756;2022-12-11T03:34:19;6.30;99.90
2477;DHT22;1249;51.270;6.756;2022-12-11T03:36:49;6.20;99.90
2477;DHT22;1249;51.270;6.756;2022-12-11T03:39:20;6.30;99.90
2477;DHT22;1249;51.270;6.756;2022-12-11T03:41:50;6.20;99.90
2477;DHT22;1249;51.270;6.756;2022-12-11T03:44:20;6.20;99.90
2477;DHT22;1249;51.270;6.756;2022-12-11T03:46:50;6.20;99.90
2477;DHT22;1249;51.270;6.756;2022-12-11T03:49:21;6.20;99.90
2477;DHT22;1249;51.270;6.756;2022-12-11T03:51:49;6.20;99.90
2477;DHT22;1249;51.270;6.756;2022-12-11T03:54:18;6.20;99.90
2477;DHT22;1249;51.270;6.756;2022-12-11T03:56:45;6.20;99.90
2477;DHT22;1249;51.270;6.756;2022-12-11T03:59:13;6.20;99.90
2477;DHT22;1249;51.270;6.756;2022-12-11T04:01:40;6.20;99.90
2477;DHT22;1249;51.270;6.756;2022-12-11T04:04:08;6.20;99.90
2477;DHT22;1249;51.270;6.756;2022-12-11T04:06:35;6.20;99.90
2477;DHT22;1249;51.270;6.756;2022-12-11T04:09:02;6.20;99.90
2477;DHT22;1249;51.270;6.756;2022-12-11T04:11:29;6.20;99.90
2477;DHT22;1249;51.270;6.756;2022-12-11T04:14:03;6.30;99.90
2477;DHT22;1249;51.270;6.756;2022-12-11T04:16:47;6.20;99.90
2477;DHT22;1249;51.270;6.756;2022-12-11T04:19:16;6.20;99.90
2477;DHT22;1249;51.270;6.756;2022-12-11T04:22:00;6.20;99.90
2477;DHT22;1249;51.270;6.756;2022-12-11T04:24:52;6.20;99.90
2477;DHT22;1249;51.270;6.756;2022-12-11T04:27:19;6.30;99.90
2477;DHT22;1249;51.270;6.756;2022-12-11T04:30:00;6.30;99.90
2477;DHT22;1249;51.270;6.756;2022-12-11T04:32:27;6.30;99.90
2477;DHT22;1249;51.270;6.756;2022-12-11T04:34:55;6.20;99.90
2477;DHT22;1249;51.270;6.756;2022-12-11T04:37:22;6.20;99.90
2477;DHT22;1249;51.270;6.756;2022-12-11T04:39:49;6.20;99.90
2477;DHT22;1249;51.270;6.756;2022-12-11T04:42:16;6.20;99.90
2477;DHT22;1249;51.270;6.756;2022-12-11T04:44:43;6.20;99.90
2477;DHT22;1249;51.270;6.756;2022-12-11T04:47:09;6.30;99.90
2477;DHT22;1249;51.270;6.756;2022-12-11T04:49:36;6.30;99.90
2477;DHT22;1249;51.270;6.756;2022-12-11T04:52:04;6.20;99.90
2477;DHT22;1249;51.270;6.756;2022-12-11T04:54:31;6.30;99.90
2477;DHT22;1249;51.270;6.756;2022-12-11T04:56:58;6.20;99.90
2477;DHT22;1249;51.270;6.756;2022-12-11T04:59:25;6.30;99.90
2477;DHT22;1249;51.270;6.756;2022-12-11T05:01:52;6.30;99.90
2477;DHT22;1249;51.270;6.756;2022-12-11T05:04:19;6.20;99.90
2477;DHT22;1249;51.270;6.756;2022-12-11T05:06:48;6.20;99.90
2477;DHT22;1249;51.270;6.756;2022-12-11T05:09:16;6.30;99.90
2477;DHT22;1249;51.270;6.756;2022-12-11T05:11:43;6.20;99.90
2477;DHT22;1249;51.270;6.756;2022-12-11T05:14:09;6.30;99.90
2477;DHT22;1249;51.270;6.756;2022-12-11T05:16:36;6.20;99.90
2477;DHT22;1249;51.270;6.756;2022-12-11T05:19:03;6.20;99.90
2477;DHT22;1249;51.270;6.756;2022-12-11T05:21:29;6.20;99.90
2477;DHT22;1249;51.270;6.756;2022-12-11T05:23:56;6.20;99.90
2477;DHT22;1249;51.270;6.756;2022-12-11T05:26:24;6.20;99.90
2477;DHT22;1249;51.270;6.756;2022-12-11T05:28:52;6.20;99.90
2477;DHT22;1249;51.270;6.756;2022-12-11T05:31:20;6.20;99.90
2477;DHT22;1249;51.270;6.756;2022-12-11T05:33:48;6.10;99.90
2477;DHT22;1249;51.270;6.756;2022-12-11T05:36:17;6.20;99.90
2477;DHT22;1249;51.270;6.756;2022-12-11T05:38:45;6.20;99.90
2477;DHT22;1249;51.270;6.756;2022-12-11T05:41:14;6.20;99.90
2477;DHT22;1249;51.270;6.756;2022-12-11T05:43:42;6.20;99.90
2477;DHT22;1249;51.270;6.756;2022-12-11T05:46:11;6.20;99.90
2477;DHT22;1249;51.270;6.756;2022-12-11T05:48:39;6.20;99.90
2477;DHT22;1249;51.270;6.756;2022-12-11T05:51:07;6.20;99.90
2477;DHT22;1249;51.270;6.756;2022-12-11T05:53:34;6.20;99.90
2477;DHT22;1249;51.270;6.756;2022-12-11T05:56:02;6.20;99.90
2477;DHT22;1249;51.270;6.756;2022-12-11T05:58:29;6.20;99.90
2477;DHT22;1249;51.270;6.756;2022-12-11T06:00:57;6.20;99.90
2477;DHT22;1249;51.270;6.756;2022-12-11T06:03:24;6.20;99.90
2477;DHT22;1249;51.270;6.756;2022-12-11T06:05:51;6.10;99.90
2477;DHT22;1249;51.270;6.756;2022-12-11T06:08:18;6.10;99.90
2477;DHT22;1249;51.270;6.756;2022-12-11T06:10:45;6.20;99.90
2477;DHT22;1249;51.270;6.756;2022-12-11T06:13:12;6.20;99.90
2477;DHT22;1249;51.270;6.756;2022-12-11T06:15:39;6.10;99.90
2477;DHT22;1249;51.270;6.756;2022-12-11T06:18:07;6.10;99.90
2477;DHT22;1249;51.270;6.756;2022-12-11T06:20:34;6.10;99.90
2477;DHT22;1249;51.270;6.756;2022-12-11T06:23:01;6.20;99.90
2477;DHT22;1249;51.270;6.756;2022-12-11T06:25:28;6.10;99.90
2477;DHT22;1249;51.270;6.756;2022-12-11T06:27:54;6.20;99.90
2477;DHT22;1249;51.270;6.756;2022-12-11T06:30:22;6.50;99.90
2477;DHT22;1249;51.270;6.756;2022-12-11T06:32:48;6.60;99.90
2477;DHT22;1249;51.270;6.756;2022-12-11T06:35:16;6.50;99.90
2477;DHT22;1249;51.270;6.756;2022-12-11T06:37:43;6.40;99.90
2477;DHT22;1249;51.270;6.756;2022-12-11T06:40:10;6.30;99.90
2477;DHT22;1249;51.270;6.756;2022-12-11T06:42:37;6.30;99.90
2477;DHT22;1249;51.270;6.756;2022-12-11T06:45:05;6.40;99.90
2477;DHT22;1249;51.270;6.756;2022-12-11T06:47:32;6.30;99.90
2477;DHT22;1249;51.270;6.756;2022-12-11T06:49:59;6.30;99.90
2477;DHT22;1249;51.270;6.756;2022-12-11T06:52:28;6.50;99.90
2477;DHT22;1249;51.270;6.756;2022-12-11T06:54:55;6.40;99.90
2477;DHT22;1249;51.270;6.756;2022-12-11T06:57:22;6.30;99.90
2477;DHT22;1249;51.270;6.756;2022-12-11T06:59:49;6.90;99.90
2477;DHT22;1249;51.270;6.756;2022-12-11T07:02:17;7.70;99.90
2477;DHT22;1249;51.270;6.756;2022-12-11T07:04:44;8.10;99.90
2477;DHT22;1249;51.270;6.756;2022-12-11T07:07:11;8.50;99.90
2477;DHT22;1249;51.270;6.756;2022-12-11T07:09:40;8.90;99.90
2477;DHT22;1249;51.270;6.756;2022-12-11T07:12:07;9.20;99.90
2477;DHT22;1249;51.270;6.756;2022-12-11T07:14:34;9.30;99.90
2477;DHT22;1249;51.270;6.756;2022-12-11T07:17:01;9.50;99.90
2477;DHT22;1249;51.270;6.756;2022-12-11T07:19:28;9.60;99.90
2477;DHT22;1249;51.270;6.756;2022-12-11T07:21:55;9.30;99.90
2477;DHT22;1249;51.270;6.756;2022-12-11T07:24:21;8.80;99.90
2477;DHT22;1249;51.270;6.756;2022-12-11T07:26:49;8.30;99.90
2477;DHT22;1249;51.270;6.756;2022-12-11T07:29:17;7.80;99.90
2477;DHT22;1249;51.270;6.756;2022-12-11T07:31:44;7.40;99.90
2477;DHT22;1249;51.270;6.756;2022-12-11T07:34:12;7.10;99.90
2477;DHT22;1249;51.270;6.756;2022-12-11T07:36:39;6.90;99.90
2477;DHT22;1249;51.270;6.756;2022-12-11T07:39:06;6.70;99.90
2477;DHT22;1249;51.270;6.756;2022-12-11T07:41:33;6.50;99.90
2477;DHT22;1249;51.270;6.756;2022-12-11T07:44:02;6.40;99.90
2477;DHT22;1249;51.270;6.756;2022-12-11T07:46:31;6.30;99.90
2477;DHT22;1249;51.270;6.756;2022-12-11T07:48:58;6.30;99.90
2477;DHT22;1249;51.270;6.756;2022-12-11T07:51:28;6.20;99.90
2477;DHT22;1249;51.270;6.756;2022-12-11T07:53:56;6.10;99.90
2477;DHT22;1249;51.270;6.756;2022-12-11T07:56:23;6.10;99.90
2477;DHT22;1249;51.270;6.756;2022-12-11T07:58:50;6.10;99.90
2477;DHT22;1249;51.270;6.756;2022-12-11T08:01:21;6.00;99.90
2477;DHT22;1249;51.270;6.756;2022-12-11T08:03:48;6.00;99.90
2477;DHT22;1249;51.270;6.756;2022-12-11T08:06:15;6.00;99.90
2477;DHT22;1249;51.270;6.756;2022-12-11T08:08:42;5.90;99.90
2477;DHT22;1249;51.270;6.756;2022-12-11T08:11:11;5.90;99.90
2477;DHT22;1249;51.270;6.756;2022-12-11T08:13:39;6.00;99.90
2477;DHT22;1249;51.270;6.756;2022-12-11T08:16:08;5.90;99.90
2477;DHT22;1249;51.270;6.756;2022-12-11T08:18:37;5.80;99.90
2477;DHT22;1249;51.270;6.756;2022-12-11T08:21:05;5.80;99.90
2477;DHT22;1249;51.270;6.756;2022-12-11T08:23:32;5.80;99.90
2477;DHT22;1249;51.270;6.756;2022-12-11T08:26:00;5.80;99.90
2477;DHT22;1249;51.270;6.756;2022-12-11T08:28:27;5.80;99.90
2477;DHT22;1249;51.270;6.756;2022-12-11T08:30:54;5.80;99.90
2477;DHT22;1249;51.270;6.756;2022-12-11T08:35:51;5.80;99.90
2477;DHT22;1249;51.270;6.756;2022-12-11T08:38:18;5.80;99.90
2477;DHT22;1249;51.270;6.756;2022-12-11T08:40:44;5.80;99.90
2477;DHT22;1249;51.270;6.756;2022-12-11T08:43:11;5.80;99.90
2477;DHT22;1249;51.270;6.756;2022-12-11T08:45:38;7.60;99.90
2477;DHT22;1249;51.270;6.756;2022-12-11T08:48:05;8.30;99.90
2477;DHT22;1249;51.270;6.756;2022-12-11T08:50:32;7.90;99.90
2477;DHT22;1249;51.270;6.756;2022-12-11T08:53:00;7.60;99.90
2477;DHT22;1249;51.270;6.756;2022-12-11T08:55:27;7.20;99.90
2477;DHT22;1249;51.270;6.756;2022-12-11T08:57:53;7.00;99.90
2477;DHT22;1249;51.270;6.756;2022-12-11T09:00:20;6.80;99.90
2477;DHT22;1249;51.270;6.756;2022-12-11T09:02:47;7.00;99.90
2477;DHT22;1249;51.270;6.756;2022-12-11T09:05:14;7.10;99.90
2477;DHT22;1249;51.270;6.756;2022-12-11T09:07:42;7.00;99.90
2477;DHT22;1249;51.270;6.756;2022-12-11T09:10:10;6.90;99.90
2477;DHT22;1249;51.270;6.756;2022-12-11T09:12:36;6.80;99.90
2477;DHT22;1249;51.270;6.756;2022-12-11T09:15:04;6.70;99.90
2477;DHT22;1249;51.270;6.756;2022-12-11T09:17:32;6.70;99.90
2477;DHT22;1249;51.270;6.756;2022-12-11T09:19:59;6.60;99.90
2477;DHT22;1249;51.270;6.756;2022-12-11T09:22:26;6.40;99.90
2477;DHT22;1249;51.270;6.756;2022-12-11T09:24:53;6.40;99.90
2477;DHT22;1249;51.270;6.756;2022-12-11T09:27:21;6.40;99.90
2477;DHT22;1249;51.270;6.756;2022-12-11T09:29:48;6.40;99.90
2477;DHT22;1249;51.270;6.756;2022-12-11T09:32:15;6.30;99.90
2477;DHT22;1249;51.270;6.756;2022-12-11T09:34:42;6.30;99.90
2477;DHT22;1249;51.270;6.756;2022-12-11T09:37:09;6.30;99.90
2477;DHT22;1249;51.270;6.756;2022-12-11T09:39:36;6.30;99.90
2477;DHT22;1249;51.270;6.756;2022-12-11T09:42:07;6.30;99.90
2477;DHT22;1249;51.270;6.756;2022-12-11T09:44:40;6.30;99.90
2477;DHT22;1249;51.270;6.756;2022-12-11T09:47:16;6.30;99.90
2477;DHT22;1249;51.270;6.756;2022-12-11T09:49:46;6.40;99.90
2477;DHT22;1249;51.270;6.756;2022-12-11T09:52:17;6.40;99.90
2477;DHT22;1249;51.270;6.756;2022-12-11T09:54:49;6.40;99.90
2477;DHT22;1249;51.270;6.756;2022-12-11T09:57:27;6.40;99.90
2477;DHT22;1249;51.270;6.756;2022-12-11T10:00:05;6.40;99.90
2477;DHT22;1249;51.270;6.756;2022-12-11T10:02:45;6.50;99.90
2477;DHT22;1249;51.270;6.756;2022-12-11T10:05:20;6.50;99.90
2477;DHT22;1249;51.270;6.756;2022-12-11T10:07:55;6.50;99.90
2477;DHT22;1249;51.270;6.756;2022-12-11T10:10:34;6.40;99.90
2477;DHT22;1249;51.270;6.756;2022-12-11T10:13:08;6.40;99.90
2477;DHT22;1249;51.270;6.756;2022-12-11T10:15:46;6.40;99.90
2477;DHT22;1249;51.270;6.756;2022-12-11T10:18:17;6.50;99.90
2477;DHT22;1249;51.270;6.756;2022-12-11T10:20:46;6.50;99.90
2477;DHT22;1249;51.270;6.756;2022-12-11T10:23:18;6.50;99.90
2477;DHT22;1249;51.270;6.756;2022-12-11T10:25:50;6.50;99.90
2477;DHT22;1249;51.270;6.756;2022-12-11T10:28:19;6.50;99.90
2477;DHT22;1249;51.270;6.756;2022-12-11T10:30:54;6.60;99.90
2477;DHT22;1249;51.270;6.756;2022-12-11T10:33:29;6.60;99.90
2477;DHT22;1249;51.270;6.756;2022-12-11T10:35:59;6.70;99.90
2477;DHT22;1249;51.270;6.756;2022-12-11T10:38:28;6.60;99.90
2477;DHT22;1249;51.270;6.756;2022-12-11T10:40:57;6.80;99.90
2477;DHT22;1249;51.270;6.756;2022-12-11T10:43:35;6.60;99.90
2477;DHT22;1249;51.270;6.756;2022-12-11T10:46:05;6.70;99.90
2477;DHT22;1249;51.270;6.756;2022-12-11T10:48:32;6.70;99.90
2477;DHT22;1249;51.270;6.756;2022-12-11T10:51:02;6.70;99.90
2477;DHT22;1249;51.270;6.756;2022-12-11T10:53:29;6.70;99.90
2477;DHT22;1249;51.270;6.756;2022-12-11T10:55:57;6.70;99.90
2477;DHT22;1249;51.270;6.756;2022-12-11T10:58:26;6.70;99.90
2477;DHT22;1249;51.270;6.756;2022-12-11T11:01:05;6.70;99.90
2477;DHT22;1249;51.270;6.756;2022-12-11T11:03:34;6.70;99.90
2477;DHT22;1249;51.270;6.756;2022-12-11T11:06:04;6.70;99.90
2477;DHT22;1249;51.270;6.756;2022-12-11T11:08:38;6.70;99.90
2477;DHT22;1249;51.270;6.756;2022-12-11T11:11:05;6.70;99.90
2477;DHT22;1249;51.270;6.756;2022-12-11T11:13:33;6.80;99.90
2477;DHT22;1249;51.270;6.756;2022-12-11T11:16:03;6.70;99.90
2477;DHT22;1249;51.270;6.756;2022-12-11T11:18:32;6.60;99.90
2477;DHT22;1249;51.270;6.756;2022-12-11T11:20:59;6.70;99.90
2477;DHT22;1249;51.270;6.756;2022-12-11T11:23:27;6.70;99.90
2477;DHT22;1249;51.270;6.756;2022-12-11T11:25:55;6.70;99.90
2477;DHT22;1249;51.270;6.756;2022-12-11T11:28:24;6.70;99.90
2477;DHT22;1249;51.270;6.756;2022-12-11T11:30:58;6.70;99.90
2477;DHT22;1249;51.270;6.756;2022-12-11T11:33:26;6.80;99.90
2477;DHT22;1249;51.270;6.756;2022-12-11T11:35:56;6.80;99.90
2477;DHT22;1249;51.270;6.756;2022-12-11T11:38:25;6.80;99.90
2477;DHT22;1249;51.270;6.756;2022-12-11T11:40:57;6.90;99.90
2477;DHT22;1249;51.270;6.756;2022-12-11T11:43:33;6.90;99.90
2477;DHT22;1249;51.270;6.756;2022-12-11T11:46:04;6.90;99.90
2477;DHT22;1249;51.270;6.756;2022-12-11T11:48:39;7.00;99.90
2477;DHT22;1249;51.270;6.756;2022-12-11T11:51:15;6.90;99.90
2477;DHT22;1249;51.270;6.756;2022-12-11T11:53:47;6.90;99.90
2477;DHT22;1249;51.270;6.756;2022-12-11T11:56:22;6.90;99.90
2477;DHT22;1249;51.270;6.756;2022-12-11T11:59:00;6.90;99.90
2477;DHT22;1249;51.270;6.756;2022-12-11T12:01:28;6.90;99.90
2477;DHT22;1249;51.270;6.756;2022-12-11T12:03:55;6.90;99.90
2477;DHT22;1249;51.270;6.756;2022-12-11T12:06:35;6.90;99.90
2477;DHT22;1249;51.270;6.756;2022-12-11T12:09:16;6.90;99.90
2477;DHT22;1249;51.270;6.756;2022-12-11T12:11:48;7.00;99.90
2477;DHT22;1249;51.270;6.756;2022-12-11T12:14:20;6.90;99.90
2477;DHT22;1249;51.270;6.756;2022-12-11T12:16:56;6.90;99.90
2477;DHT22;1249;51.270;6.756;2022-12-11T12:19:48;7.00;99.90
2477;DHT22;1249;51.270;6.756;2022-12-11T12:22:26;7.00;99.90
2477;DHT22;1249;51.270;6.756;2022-12-11T12:25:04;6.90;99.90
2477;DHT22;1249;51.270;6.756;2022-12-11T12:27:41;7.00;99.90
2477;DHT22;1249;51.270;6.756;2022-12-11T12:30:14;7.00;99.90
2477;DHT22;1249;51.270;6.756;2022-12-11T12:32:57;7.10;99.90
2477;DHT22;1249;51.270;6.756;2022-12-11T12:35:36;7.10;99.90
2477;DHT22;1249;51.270;6.756;2022-12-11T12:38:12;7.10;99.90
2477;DHT22;1249;51.270;6.756;2022-12-11T12:40:50;7.00;99.90
2477;DHT22;1249;51.270;6.756;2022-12-11T12:43:33;7.00;99.90
2477;DHT22;1249;51.270;6.756;2022-12-11T12:46:12;6.90;99.90
2477;DHT22;1249;51.270;6.756;2022-12-11T12:48:44;7.00;99.90
2477;DHT22;1249;51.270;6.756;2022-12-11T12:51:12;7.10;99.90
2477;DHT22;1249;51.270;6.756;2022-12-11T12:53:45;7.00;99.90
2477;DHT22;1249;51.270;6.756;2022-12-11T12:56:13;6.90;99.90
2477;DHT22;1249;51.270;6.756;2022-12-11T12:58:42;6.90;99.90
2477;DHT22;1249;51.270;6.756;2022-12-11T13:01:14;6.90;99.90
2477;DHT22;1249;51.270;6.756;2022-12-11T13:03:50;6.90;99.90
2477;DHT22;1249;51.270;6.756;2022-12-11T13:06:28;7.00;99.90
2477;DHT22;1249;51.270;6.756;2022-12-11T13:08:57;7.00;99.90
2477;DHT22;1249;51.270;6.756;2022-12-11T13:11:35;7.00;99.90
2477;DHT22;1249;51.270;6.756;2022-12-11T13:14:04;7.00;99.90
2477;DHT22;1249;51.270;6.756;2022-12-11T13:16:36;7.10;99.90
2477;DHT22;1249;51.270;6.756;2022-12-11T13:19:15;7.10;99.90
2477;DHT22;1249;51.270;6.756;2022-12-11T13:21:54;7.10;99.90
2477;DHT22;1249;51.270;6.756;2022-12-11T13:24:27;7.10;99.90
2477;DHT22;1249;51.270;6.756;2022-12-11T13:26:54;7.00;99.90
2477;DHT22;1249;51.270;6.756;2022-12-11T13:29:35;7.00;99.90
2477;DHT22;1249;51.270;6.756;2022-12-11T13:32:18;7.00;99.90
2477;DHT22;1249;51.270;6.756;2022-12-11T13:34:51;7.10;99.90
2477;DHT22;1249;51.270;6.756;2022-12-11T13:37:24;7.00;99.90
2477;DHT22;1249;51.270;6.756;2022-12-11T13:39:53;7.00;99.90
2477;DHT22;1249;51.270;6.756;2022-12-11T13:42:24;7.00;99.90
2477;DHT22;1249;51.270;6.756;2022-12-11T13:44:53;7.00;99.90
2477;DHT22;1249;51.270;6.756;2022-12-11T13:47:20;7.00;99.90
2477;DHT22;1249;51.270;6.756;2022-12-11T13:49:49;7.10;99.90
2477;DHT22;1249;51.270;6.756;2022-12-11T13:52:22;7.10;99.90
2477;DHT22;1249;51.270;6.756;2022-12-11T13:54:54;7.10;99.90
2477;DHT22;1249;51.270;6.756;2022-12-11T13:57:25;7.10;99.90
2477;DHT22;1249;51.270;6.756;2022-12-11T13:59:54;7.00;99.90
2477;DHT22;1249;51.270;6.756;2022-12-11T14:02:24;7.10;99.90
2477;DHT22;1249;51.270;6.756;2022-12-11T14:04:53;7.00;99.90
2477;DHT22;1249;51.270;6.756;2022-12-11T14:07:25;7.00;99.90
2477;DHT22;1249;51.270;6.756;2022-12-11T14:09:58;7.00;99.90
2477;DHT22;1249;51.270;6.756;2022-12-11T14:12:27;7.00;99.90
2477;DHT22;1249;51.270;6.756;2022-12-11T14:14:56;7.00;99.90
2477;DHT22;1249;51.270;6.756;2022-12-11T14:17:27;6.90;99.90
2477;DHT22;1249;51.270;6.756;2022-12-11T14:19:56;6.90;99.90
2477;DHT22;1249;51.270;6.756;2022-12-11T14:22:25;6.90;99.90
2477;DHT22;1249;51.270;6.756;2022-12-11T14:24:54;6.90;99.90
2477;DHT22;1249;51.270;6.756;2022-12-11T14:27:23;6.90;99.90
2477;DHT22;1249;51.270;6.756;2022-12-11T14:29:50;6.90;99.90
2477;DHT22;1249;51.270;6.756;2022-12-11T14:32:20;6.90;99.90
2477;DHT22;1249;51.270;6.756;2022-12-11T14:34:50;6.90;99.90
2477;DHT22;1249;51.270;6.756;2022-12-11T14:37:20;7.00;99.90
2477;DHT22;1249;51.270;6.756;2022-12-11T14:39:55;6.90;99.90
2477;DHT22;1249;51.270;6.756;2022-12-11T14:42:24;7.00;99.90
2477;DHT22;1249;51.270;6.756;2022-12-11T14:44:55;6.90;99.90
2477;DHT22;1249;51.270;6.756;2022-12-11T14:47:25;6.90;99.90
2477;DHT22;1249;51.270;6.756;2022-12-11T14:49:55;6.90;99.90
2477;DHT22;1249;51.270;6.756;2022-12-11T14:52:27;6.80;99.90
2477;DHT22;1249;51.270;6.756;2022-12-11T14:55:00;6.90;99.90
2477;DHT22;1249;51.270;6.756;2022-12-11T14:57:30;6.80;99.90
2477;DHT22;1249;51.270;6.756;2022-12-11T14:59:59;6.90;99.90
2477;DHT22;1249;51.270;6.756;2022-12-11T15:02:28;6.90;99.90
2477;DHT22;1249;51.270;6.756;2022-12-11T15:07:54;6.90;99.90
2477;DHT22;1249;51.270;6.756;2022-12-11T15:10:26;6.80;99.90
2477;DHT22;1249;51.270;6.756;2022-12-11T15:12:56;6.80;99.90
2477;DHT22;1249;51.270;6.756;2022-12-11T15:15:24;6.80;99.90
2477;DHT22;1249;51.270;6.756;2022-12-11T15:17:51;6.80;99.90
2477;DHT22;1249;51.270;6.756;2022-12-11T15:20:24;6.80;99.90
2477;DHT22;1249;51.270;6.756;2022-12-11T15:22:52;6.80;99.90
2477;DHT22;1249;51.270;6.756;2022-12-11T15:25:20;6.80;99.90
2477;DHT22;1249;51.270;6.756;2022-12-11T15:27:53;6.80;99.90
2477;DHT22;1249;51.270;6.756;2022-12-11T15:30:28;6.70;99.90
2477;DHT22;1249;51.270;6.756;2022-12-11T15:33:03;6.80;99.90
2477;DHT22;1249;51.270;6.756;2022-12-11T15:35:30;6.80;99.90
2477;DHT22;1249;51.270;6.756;2022-12-11T15:37:58;6.80;99.90
2477;DHT22;1249;51.270;6.756;2022-12-11T15:40:25;6.70;99.90
2477;DHT22;1249;51.270;6.756;2022-12-11T15:42:54;6.70;99.90
2477;DHT22;1249;51.270;6.756;2022-12-11T15:45:24;6.70;99.90
2477;DHT22;1249;51.270;6.756;2022-12-11T15:47:53;6.70;99.90
2477;DHT22;1249;51.270;6.756;2022-12-11T15:50:22;6.70;99.90
2477;DHT22;1249;51.270;6.756;2022-12-11T15:52:50;6.70;99.90
2477;DHT22;1249;51.270;6.756;2022-12-11T15:55:19;6.70;99.90
2477;DHT22;1249;51.270;6.756;2022-12-11T15:57:47;7.40;99.90
2477;DHT22;1249;51.270;6.756;2022-12-11T16:00:18;8.90;99.90
2477;DHT22;1249;51.270;6.756;2022-12-11T16:02:45;9.90;99.90
2477;DHT22;1249;51.270;6.756;2022-12-11T16:05:13;10.50;99.90
2477;DHT22;1249;51.270;6.756;2022-12-11T16:07:40;10.90;99.90
2477;DHT22;1249;51.270;6.756;2022-12-11T16:10:11;11.30;99.90
2477;DHT22;1249;51.270;6.756;2022-12-11T16:12:39;11.50;99.90
2477;DHT22;1249;51.270;6.756;2022-12-11T16:15:08;11.10;99.90
2477;DHT22;1249;51.270;6.756;2022-12-11T16:17:36;10.30;99.90
2477;DHT22;1249;51.270;6.756;2022-12-11T16:20:04;9.60;99.90
2477;DHT22;1249;51.270;6.756;2022-12-11T16:22:31;9.00;99.90
2477;DHT22;1249;51.270;6.756;2022-12-11T16:24:57;8.80;99.90
2477;DHT22;1249;51.270;6.756;2022-12-11T16:27:24;8.30;99.90
2477;DHT22;1249;51.270;6.756;2022-12-11T16:29:51;7.80;99.90
2477;DHT22;1249;51.270;6.756;2022-12-11T16:32:18;7.50;99.90
2477;DHT22;1249;51.270;6.756;2022-12-11T16:34:46;7.30;99.90
2477;DHT22;1249;51.270;6.756;2022-12-11T16:37:12;7.00;99.90
2477;DHT22;1249;51.270;6.756;2022-12-11T16:39:39;6.80;99.90